createdAt,value
2023-01-21T00:01:14.587Z,101352.78
2023-01-21T00:03:44.520Z,101351.94
2023-01-21T00:06:14.989Z,101349.25
2023-01-21T00:08:43.124Z,101354.72
2023-01-21T00:11:13.905Z,101349.38
2023-01-21T00:13:42.741Z,101358.78
2023-01-21T00:16:11.329Z,101367.66
2023-01-21T00:18:39.616Z,101366.06
2023-01-21T00:21:09.376Z,101373.78
2023-01-21T00:23:37.533Z,101367.56
2023-01-21T00:26:07.160Z,101365.94
2023-01-21T00:28:36.531Z,101365.63
2023-01-21T00:31:06.473Z,101368.19
2023-01-21T00:33:36.312Z,101370.00
2023-01-21T00:36:05.929Z,101370.13
2023-01-21T00:38:35.676Z,101376.97
2023-01-21T00:41:04.476Z,101376.97
2023-01-21T00:43:32.526Z,101375.25
2023-01-21T00:46:01.062Z,101378.69
2023-01-21T00:48:29.717Z,101380.63
2023-01-21T00:51:00.795Z,101381.38
2023-01-21T00:53:29.611Z,101376.97
2023-01-21T00:56:01.582Z,101378.47
2023-01-21T00:58:30.254Z,101383.81
2023-01-21T01:01:02.488Z,101373.94
2023-01-21T01:03:30.718Z,101376.97
2023-01-21T01:06:02.453Z,101378.47
2023-01-21T01:08:30.651Z,101382.75
2023-01-21T01:10:58.942Z,101380.91
2023-01-21T01:13:28.892Z,101388.72
2023-01-21T01:15:58.833Z,101384.13
2023-01-21T01:18:27.912Z,101384.00
2023-01-21T01:20:56.119Z,101381.94
2023-01-21T01:23:24.598Z,101380.00
2023-01-21T01:25:56.318Z,101377.09
2023-01-21T01:28:24.521Z,101386.09
2023-01-21T01:30:54.361Z,101387.09
2023-01-21T01:33:23.030Z,101389.78
2023-01-21T01:35:51.158Z,101393.06
2023-01-21T01:38:20.362Z,101378.56
2023-01-21T01:40:48.950Z,101387.59
2023-01-21T01:43:18.628Z,101392.47
2023-01-21T01:45:46.750Z,101391.41
2023-01-21T01:48:17.857Z,101392.28
2023-01-21T01:50:46.513Z,101398.59
2023-01-21T01:53:15.453Z,101396.88
2023-01-21T01:55:43.792Z,101401.06
2023-01-21T01:58:13.427Z,101404.50
2023-01-21T02:00:41.587Z,101408.13
2023-01-21T02:03:27.034Z,101400.81
2023-01-21T02:05:57.033Z,101407.78
2023-01-21T02:08:25.810Z,101408.44
2023-01-21T02:10:56.781Z,101418.16
2023-01-21T02:13:27.326Z,101422.34
2023-01-21T02:16:04.659Z,101425.03
2023-01-21T02:18:38.081Z,101414.41
2023-01-21T02:21:21.204Z,101416.13
2023-01-21T02:24:00.711Z,101428.06
2023-01-21T02:26:40.713Z,101428.66
2023-01-21T02:29:27.978Z,101433.84
2023-01-21T02:32:05.445Z,101430.91
2023-01-21T02:34:40.415Z,101440.88
2023-01-21T02:37:12.291Z,101435.53
2023-01-21T02:39:55.568Z,101446.25
2023-01-21T02:42:26.898Z,101454.84
2023-01-21T02:44:58.443Z,101468.84
2023-01-21T02:47:28.208Z,101473.09
2023-01-21T02:50:01.077Z,101473.97
2023-01-21T02:52:29.721Z,101480.91
2023-01-21T02:54:58.516Z,101487.06
2023-01-21T02:57:39.364Z,101484.59
2023-01-21T03:00:09.909Z,101495.56
2023-01-21T03:02:50.099Z,101489.97
2023-01-21T03:05:25.139Z,101480.91
2023-01-21T03:07:58.865Z,101476.78
2023-01-21T03:10:30.201Z,101479.47
2023-01-21T03:13:02.416Z,101485.78
2023-01-21T03:15:50.989Z,101468.19
2023-01-21T03:18:21.752Z,101466.38
2023-01-21T03:20:53.152Z,101471.00
2023-01-21T03:23:23.451Z,101468.31
2023-01-21T03:25:52.287Z,101467.34
2023-01-21T03:28:22.913Z,101475.72
2023-01-21T03:30:54.539Z,101462.19
2023-01-21T03:33:23.411Z,101471.00
2023-01-21T03:35:56.049Z,101468.44
2023-01-21T03:38:27.467Z,101469.28
2023-01-21T03:40:58.089Z,101475.53
2023-01-21T03:43:26.663Z,101466.47
2023-01-21T03:46:00.744Z,101470.16
2023-01-21T03:48:32.849Z,101460.16
2023-01-21T03:51:06.555Z,101464.56
2023-01-21T03:53:34.905Z,101464.19
2023-01-21T03:56:02.978Z,101462.59
2023-01-21T03:58:31.079Z,101460.78
2023-01-21T04:00:59.188Z,101457.22
2023-01-21T04:03:27.266Z,101463.56
2023-01-21T04:05:55.342Z,101457.22
2023-01-21T04:08:25.209Z,101468.50
2023-01-21T04:10:53.660Z,101459.44
2023-01-21T04:13:21.683Z,101458.72
2023-01-21T04:15:49.730Z,101463.34
2023-01-21T04:18:17.745Z,101460.69
2023-01-21T04:20:47.481Z,101459.69
2023-01-21T04:23:15.553Z,101455.91
2023-01-21T04:25:45.054Z,101446.03
2023-01-21T04:28:13.196Z,101433.34
2023-01-21T04:30:41.538Z,101428.00
2023-01-21T04:33:09.538Z,101419.28
2023-01-21T04:35:37.839Z,101428.00
2023-01-21T04:38:06.656Z,101428.00
2023-01-21T04:40:35.021Z,101429.72
2023-01-21T04:43:04.671Z,101421.00
2023-01-21T04:45:32.691Z,101422.09
2023-01-21T04:48:01.268Z,101431.25
2023-01-21T04:50:29.371Z,101431.88
2023-01-21T04:52:57.627Z,101431.75
2023-01-21T04:55:26.516Z,101430.16
2023-01-21T04:57:54.554Z,101430.16
2023-01-21T05:00:24.323Z,101433.84
2023-01-21T05:02:52.655Z,101440.78
2023-01-21T05:05:21.359Z,101435.28
2023-01-21T05:07:49.649Z,101439.56
2023-01-21T05:10:19.286Z,101452.66
2023-01-21T05:12:48.600Z,101455.44
2023-01-21T05:15:16.804Z,101458.25
2023-01-21T05:17:46.496Z,101458.03
2023-01-21T05:20:15.040Z,101453.75
2023-01-21T05:22:43.435Z,101456.19
2023-01-21T05:25:11.584Z,101456.09
2023-01-21T05:27:39.574Z,101458.78
2023-01-21T05:30:08.503Z,101448.75
2023-01-21T05:32:37.187Z,101453.91
2023-01-21T05:35:07.041Z,101457.56
2023-01-21T05:37:35.269Z,101462.94
2023-01-21T05:40:03.476Z,101455.84
2023-01-21T05:42:31.529Z,101450.34
2023-01-21T05:45:01.661Z,101458.41
2023-01-21T05:47:30.027Z,101449.50
2023-01-21T05:49:58.051Z,101454.13
2023-01-21T05:52:27.643Z,101450.47
2023-01-21T05:55:01.946Z,101455.00
2023-01-21T05:57:30.830Z,101456.38
2023-01-21T05:59:59.244Z,101451.00
2023-01-21T06:02:27.684Z,101445.63
2023-01-21T06:04:55.782Z,101444.41
2023-01-21T06:07:23.803Z,101440.13
2023-01-21T06:09:53.583Z,101445.50
2023-01-21T06:12:23.811Z,101445.88
2023-01-21T06:14:52.880Z,101452.69
2023-01-21T06:17:21.234Z,101455.59
2023-01-21T06:19:49.579Z,101453.56
2023-01-21T06:22:17.870Z,101454.41
2023-01-21T06:24:46.168Z,101453.03
2023-01-21T06:27:15.821Z,101456.38
2023-01-21T06:29:44.091Z,101462.47
2023-01-21T06:32:12.411Z,101460.00
2023-01-21T06:34:40.502Z,101466.75
2023-01-21T06:37:08.552Z,101476.75
2023-01-21T06:39:36.955Z,101472.00
2023-01-21T06:42:05.575Z,101472.00
2023-01-21T06:44:35.161Z,101471.28
2023-01-21T06:47:03.276Z,101466.31
2023-01-21T06:49:31.540Z,101465.66
2023-01-21T06:51:59.733Z,101473.41
2023-01-21T06:54:30.447Z,101470.28
2023-01-21T06:56:58.942Z,101471.78
2023-01-21T06:59:26.996Z,101476.94
2023-01-21T07:01:59.269Z,101472.56
2023-01-21T07:04:27.931Z,101468.66
2023-01-21T07:06:56.193Z,101470.34
2023-01-21T07:09:24.306Z,101476.94
2023-01-21T07:11:52.541Z,101477.69
2023-01-21T07:14:20.695Z,101476.94
2023-01-21T07:16:48.762Z,101477.69
2023-01-21T07:19:18.238Z,101471.34
2023-01-21T07:21:46.520Z,101478.41
2023-01-21T07:24:14.759Z,101482.81
2023-01-21T07:26:43.451Z,101471.00
2023-01-21T07:29:11.658Z,101474.63
2023-01-21T07:31:39.822Z,101484.53
2023-01-21T07:34:08.107Z,101484.31
2023-01-21T07:36:37.925Z,101485.38
2023-01-21T07:39:06.037Z,101487.84
2023-01-21T07:41:34.165Z,101487.00
2023-01-21T07:44:02.318Z,101497.63
2023-01-21T07:46:32.067Z,101488.47
2023-01-21T07:49:00.288Z,101493.47
2023-01-21T07:51:28.403Z,101488.34
2023-01-21T07:53:58.445Z,101502.75
2023-01-21T07:56:27.011Z,101501.03
2023-01-21T07:58:55.243Z,101501.03
2023-01-21T08:01:27.092Z,101499.22
2023-01-21T08:03:55.349Z,101507.28
2023-01-21T08:06:24.102Z,101514.47
2023-01-21T08:08:52.362Z,101506.50
2023-01-21T08:11:22.014Z,101501.03
2023-01-21T08:13:50.763Z,101505.56
2023-01-21T08:16:18.884Z,101515.44
2023-01-21T08:18:47.045Z,101502.97
2023-01-21T08:21:15.256Z,101510.91
2023-01-21T08:23:43.758Z,101522.50
2023-01-21T08:26:11.909Z,101528.75
2023-01-21T08:28:41.391Z,101517.25
2023-01-21T08:31:10.809Z,101514.56
2023-01-21T08:33:39.568Z,101517.13
2023-01-21T08:36:08.906Z,101518.97
2023-01-21T08:38:37.206Z,101525.44
2023-01-21T08:41:05.679Z,101525.09
2023-01-21T08:43:33.880Z,101513.38
2023-01-21T08:46:04.083Z,101521.66
2023-01-21T08:48:32.321Z,101520.81
2023-01-21T08:51:01.105Z,101516.41
2023-01-21T08:53:29.685Z,101525.84
2023-01-21T08:55:59.933Z,101524.59
2023-01-21T08:58:28.071Z,101519.63
2023-01-21T09:00:56.884Z,101521.66
2023-01-21T09:03:26.726Z,101522.50
2023-01-21T09:05:55.847Z,101525.09
2023-01-21T09:08:23.910Z,101529.13
2023-01-21T09:11:05.957Z,101522.91
2023-01-21T09:13:35.510Z,101520.97
2023-01-21T09:16:04.938Z,101510.25
2023-01-21T09:18:34.558Z,101511.31
2023-01-21T09:21:02.992Z,101521.94
2023-01-21T09:23:34.227Z,101517.41
2023-01-21T09:26:03.305Z,101508.28
2023-01-21T09:28:32.568Z,101516.44
2023-01-21T09:31:01.634Z,101514.16
2023-01-21T09:33:30.639Z,101509.75
2023-01-21T09:36:01.437Z,101515.00
2023-01-21T09:38:30.075Z,101516.22
2023-01-21T09:41:00.368Z,101520.50
2023-01-21T09:43:30.759Z,101526.28
2023-01-21T09:46:06.381Z,101525.41
2023-01-21T09:48:36.602Z,101522.72
2023-01-21T09:51:14.582Z,101522.34
2023-01-21T09:53:46.223Z,101515.72
2023-01-21T09:56:19.461Z,101516.38
2023-01-21T09:58:51.400Z,101516.84
2023-01-21T10:01:21.919Z,101523.72
2023-01-21T10:03:54.590Z,101525.19
2023-01-21T10:06:38.634Z,101523.81
2023-01-21T10:09:21.837Z,101536.44
2023-01-21T10:11:58.668Z,101542.06
2023-01-21T10:14:38.679Z,101544.53
2023-01-21T10:17:10.361Z,101545.72
2023-01-21T10:19:40.814Z,101558.06
2023-01-21T10:22:13.785Z,101540.09
2023-01-21T10:24:46.298Z,101553.44
2023-01-21T10:27:19.917Z,101566.16
2023-01-21T10:29:49.440Z,101547.69
2023-01-21T10:32:22.539Z,101551.81
2023-01-21T10:34:52.787Z,101557.19
2023-01-21T10:37:25.616Z,101558.06
2023-01-21T10:39:57.968Z,101562.56
2023-01-21T10:42:44.183Z,101560.13
2023-01-21T10:45:22.034Z,101563.34
2023-01-21T10:47:53.779Z,101557.97
2023-01-21T10:50:31.787Z,101565.53
2023-01-21T10:53:03.368Z,101556.75
2023-01-21T10:55:40.164Z,101560.69
2023-01-21T10:58:12.425Z,101565.28
2023-01-21T11:00:44.977Z,101556.78
2023-01-21T11:03:16.939Z,101557.09
2023-01-21T11:05:46.049Z,101554.41
2023-01-21T11:08:18.992Z,101553.47
2023-01-21T11:10:48.389Z,101537.44
2023-01-21T11:13:16.850Z,101547.22
2023-01-21T11:15:48.126Z,101540.41
2023-01-21T11:18:27.053Z,101547.50
2023-01-21T11:20:57.419Z,101547.25
2023-01-21T11:23:28.971Z,101551.53
2023-01-21T11:26:10.573Z,101550.66
2023-01-21T11:28:42.728Z,101541.88
2023-01-21T11:31:25.195Z,101543.69
2023-01-21T11:33:57.564Z,101547.97
2023-01-21T11:36:26.121Z,101547.00
2023-01-21T11:39:06.553Z,101549.81
2023-01-21T11:41:38.143Z,101555.44
2023-01-21T11:44:14.872Z,101558.84
2023-01-21T11:46:50.880Z,101563.38
2023-01-21T11:49:25.934Z,101557.53
2023-01-21T11:52:22.316Z,101561.94
2023-01-21T11:54:58.701Z,101570.25
2023-01-21T11:57:31.687Z,101572.56
2023-01-21T12:00:05.619Z,101571.69
2023-01-21T12:02:52.563Z,101572.84
2023-01-21T12:05:32.661Z,101561.94
2023-01-21T12:08:09.349Z,101555.69
2023-01-21T12:10:48.194Z,101554.84
2023-01-21T12:13:29.485Z,101558.25
2023-01-21T12:16:34.802Z,101553.63
2023-01-21T12:19:17.303Z,101556.19
2023-01-21T12:22:01.864Z,101544.69
2023-01-21T12:24:40.529Z,101547.41
2023-01-21T12:27:18.261Z,101544.78
2023-01-21T12:29:53.974Z,101547.16
2023-01-21T12:32:30.251Z,101547.88
2023-01-21T12:35:03.674Z,101553.38
2023-01-21T12:37:34.717Z,101550.06
2023-01-21T12:40:05.960Z,101549.47
2023-01-21T12:42:37.799Z,101547.03
2023-01-21T12:45:08.152Z,101546.06
2023-01-21T12:47:39.869Z,101548.63
2023-01-21T12:50:20.969Z,101553.75
2023-01-21T12:52:55.915Z,101537.63
2023-01-21T12:55:25.941Z,101546.66
2023-01-21T12:57:58.177Z,101548.13
2023-01-21T13:00:27.018Z,101541.91
2023-01-21T13:02:58.266Z,101529.66
2023-01-21T13:05:32.168Z,101542.13
2023-01-21T13:08:05.096Z,101545.44
2023-01-21T13:10:39.774Z,101537.50
2023-01-21T13:13:18.553Z,101532.00
2023-01-21T13:15:55.832Z,101534.56
2023-01-21T13:18:31.566Z,101533.47
2023-01-21T13:21:11.524Z,101532.38
2023-01-21T13:23:52.191Z,101532.13
2023-01-21T13:26:33.815Z,101534.31
2023-01-21T13:29:06.214Z,101533.09
2023-01-21T13:31:45.740Z,101530.16
2023-01-21T13:34:27.177Z,101530.78
2023-01-21T13:37:15.717Z,101524.28
2023-01-21T13:39:50.095Z,101516.94
2023-01-21T13:42:32.885Z,101516.81
2023-01-21T13:45:17.325Z,101533.94
2023-01-21T13:48:03.299Z,101529.44
2023-01-21T13:50:45.581Z,101523.66
2023-01-21T13:53:27.058Z,101533.81
2023-01-21T13:56:14.555Z,101522.94
2023-01-21T13:58:56.401Z,101530.00
2023-01-21T14:01:29.039Z,101529.16
2023-01-21T14:04:09.383Z,101526.22
2023-01-21T14:06:48.495Z,101525.25
2023-01-21T14:09:24.525Z,101529.63
2023-01-21T14:12:00.213Z,101526.94
2023-01-21T14:14:39.660Z,101512.78
2023-01-21T14:17:23.759Z,101515.97
2023-01-21T14:20:22.535Z,101504.19
2023-01-21T14:23:13.284Z,101510.56
2023-01-21T14:25:53.347Z,101505.19
2023-01-21T14:28:32.566Z,101506.28
2023-01-21T14:31:10.043Z,101504.19
2023-01-21T14:33:50.966Z,101498.59
2023-01-21T14:36:29.403Z,101504.31
2023-01-21T14:39:06.971Z,101513.63
2023-01-21T14:41:53.887Z,101503.22
2023-01-21T14:44:41.704Z,101498.34
2023-01-21T14:47:21.383Z,101506.88
2023-01-21T14:49:56.819Z,101503.97
2023-01-21T14:52:37.769Z,101512.25
2023-01-21T14:55:25.590Z,101507.88
2023-01-21T14:57:59.117Z,101508.34
2023-01-21T15:00:31.921Z,101513.72
2023-01-21T15:03:19.335Z,101506.66
2023-01-21T15:05:52.773Z,101509.44
2023-01-21T15:08:29.028Z,101504.31
2023-01-21T15:11:05.992Z,101498.81
2023-01-21T15:13:42.604Z,101503.09
2023-01-21T15:16:21.192Z,101509.22
2023-01-21T15:19:10.765Z,101519.00
2023-01-21T15:22:06.059Z,101512.88
2023-01-21T15:24:45.245Z,101512.88
2023-01-21T15:27:16.625Z,101504.69
2023-01-21T15:29:45.738Z,101513.47
2023-01-21T15:32:34.468Z,101511.03
2023-01-21T15:35:12.780Z,101516.91
2023-01-21T15:37:50.493Z,101512.03
2023-01-21T15:40:26.808Z,101516.28
2023-01-21T15:43:05.319Z,101517.44
2023-01-21T15:45:42.387Z,101509.44
2023-01-21T15:48:30.130Z,101511.28
2023-01-21T15:51:12.585Z,101511.66
2023-01-21T15:54:01.819Z,101507.13
2023-01-21T15:56:52.430Z,101512.50
2023-01-21T15:59:28.850Z,101510.44
2023-01-21T16:02:17.851Z,101527.69
2023-01-21T16:04:58.001Z,101525.59
2023-01-21T16:07:37.525Z,101513.97
2023-01-21T16:10:18.672Z,101521.09
2023-01-21T16:13:01.764Z,101520.22
2023-01-21T16:15:38.537Z,101513.97
2023-01-21T16:18:12.801Z,101525.50
2023-01-21T16:20:50.759Z,101521.09
2023-01-21T16:23:24.188Z,101517.44
2023-01-21T16:25:53.667Z,101525.00
2023-01-21T16:28:25.389Z,101523.03
2023-01-21T16:30:56.749Z,101524.03
2023-01-21T16:33:25.567Z,101542.25
2023-01-21T16:35:56.304Z,101539.69
2023-01-21T16:38:30.061Z,101535.78
2023-01-21T16:41:18.345Z,101533.91
2023-01-21T16:43:50.400Z,101535.16
2023-01-21T16:46:25.689Z,101526.94
2023-01-21T16:49:03.182Z,101532.59
2023-01-21T16:51:34.634Z,101532.84
2023-01-21T16:54:21.490Z,101525.25
2023-01-21T16:56:54.124Z,101537.97
2023-01-21T16:59:26.646Z,101529.16
2023-01-21T17:01:55.468Z,101541.78
2023-01-21T17:04:23.702Z,101541.88
2023-01-21T17:06:54.059Z,101554.34
2023-01-21T17:09:28.226Z,101548.97
2023-01-21T17:11:57.431Z,101558.28
2023-01-21T17:14:28.878Z,101558.78
2023-01-21T17:16:58.872Z,101570.50
2023-01-21T17:19:31.513Z,101562.44
2023-01-21T17:22:01.622Z,101564.16
2023-01-21T17:24:32.386Z,101557.81
2023-01-21T17:27:03.507Z,101554.34
2023-01-21T17:29:34.747Z,101565.00
2023-01-21T17:32:04.054Z,101562.94
2023-01-21T17:34:33.551Z,101556.09
2023-01-21T17:37:01.793Z,101556.53
2023-01-21T17:39:48.736Z,101548.47
2023-01-21T17:42:18.371Z,101551.41
2023-01-21T17:44:49.234Z,101537.97
2023-01-21T17:47:22.684Z,101536.88
2023-01-21T17:49:56.131Z,101536.03
2023-01-21T17:52:25.343Z,101538.84
2023-01-21T17:55:11.152Z,101541.41
2023-01-21T17:57:39.766Z,101520.47
2023-01-21T18:00:22.679Z,101519.88
2023-01-21T18:02:52.366Z,101520.13
2023-01-21T18:05:21.239Z,101518.16
2023-01-21T18:07:49.507Z,101527.06
2023-01-21T18:10:18.648Z,101533.78
2023-01-21T18:12:47.050Z,101532.22
2023-01-21T18:15:15.926Z,101532.59
2023-01-21T18:17:46.377Z,101529.63
2023-01-21T18:20:19.388Z,101514.50
2023-01-21T18:22:48.189Z,101516.44
2023-01-21T18:25:17.303Z,101518.16
2023-01-21T18:27:47.374Z,101526.22
2023-01-21T18:30:17.367Z,101536.03
2023-01-21T18:32:45.918Z,101529.16
2023-01-21T18:35:16.622Z,101544.47
2023-01-21T18:37:46.365Z,101536.88
2023-01-21T18:40:22.584Z,101556.94
2023-01-21T18:42:58.439Z,101556.69
2023-01-21T18:45:33.237Z,101553.13
2023-01-21T18:48:08.191Z,101580.06
2023-01-21T18:50:37.775Z,101558.53
2023-01-21T18:53:08.168Z,101564.75
2023-01-21T18:55:36.624Z,101553.84
2023-01-21T18:58:11.887Z,101560.97
2023-01-21T19:00:46.911Z,101563.91
2023-01-21T19:03:17.395Z,101550.44
2023-01-21T19:05:51.168Z,101560.25
2023-01-21T19:08:31.166Z,101545.31
2023-01-21T19:11:07.853Z,101553.25
2023-01-21T19:13:44.753Z,101543.34
2023-01-21T19:16:22.005Z,101552.41
2023-01-21T19:18:57.128Z,101555.34
2023-01-21T19:21:29.968Z,101558.78
2023-01-21T19:24:04.892Z,101548.72
2023-01-21T19:26:38.838Z,101558.03
2023-01-21T19:29:14.040Z,101567.09
2023-01-21T19:31:47.749Z,101556.34
2023-01-21T19:34:17.528Z,101558.03
2023-01-21T19:36:49.581Z,101547.03
2023-01-21T19:39:27.308Z,101542.50
2023-01-21T19:42:08.252Z,101543.09
2023-01-21T19:44:46.347Z,101543.34
2023-01-21T19:47:23.786Z,101537.97
2023-01-21T19:49:59.838Z,101537.72
2023-01-21T19:52:37.096Z,101543.34
2023-01-21T19:55:09.153Z,101530.00
2023-01-21T19:57:39.960Z,101531.00
2023-01-21T20:00:29.043Z,101527.19
2023-01-21T20:02:58.905Z,101513.75
2023-01-21T20:05:34.037Z,101516.44
2023-01-21T20:08:02.814Z,101522.06
2023-01-21T20:10:39.862Z,101539.94
2023-01-21T20:13:14.452Z,101553.00
2023-01-21T20:15:45.579Z,101563.19
2023-01-21T20:18:20.764Z,101560.13
2023-01-21T20:20:53.295Z,101560.63
2023-01-21T20:23:26.885Z,101557.56
2023-01-21T20:26:00.044Z,101550.69
2023-01-21T20:28:35.321Z,101543.59
2023-01-21T20:31:08.064Z,101555.84
2023-01-21T20:33:39.830Z,101559.75
2023-01-21T20:36:15.373Z,101546.91
2023-01-21T20:38:49.739Z,101544.56
2023-01-21T20:41:21.037Z,101544.47
2023-01-21T20:43:55.024Z,101540.19
2023-01-21T20:46:30.416Z,101529.56
2023-01-21T20:49:06.818Z,101524.28
2023-01-21T20:51:43.853Z,101525.72
2023-01-21T20:54:13.408Z,101543.84
2023-01-21T20:56:45.830Z,101535.06
2023-01-21T20:59:19.811Z,101545.91
2023-01-21T21:01:52.797Z,101533.09
2023-01-21T21:04:26.987Z,101524.16
2023-01-21T21:06:56.137Z,101524.28
2023-01-21T21:09:26.090Z,101521.59
2023-01-21T21:12:03.886Z,101512.53
2023-01-21T21:14:38.872Z,101528.94
2023-01-21T21:17:15.937Z,101525.25
2023-01-21T21:19:44.893Z,101525.97
2023-01-21T21:22:16.371Z,101522.94
2023-01-21T21:24:45.606Z,101526.22
2023-01-21T21:27:22.337Z,101533.94
2023-01-21T21:30:01.419Z,101540.19
2023-01-21T21:32:32.187Z,101537.50
2023-01-21T21:35:08.196Z,101535.53
2023-01-21T21:37:42.258Z,101532.00
2023-01-21T21:40:15.628Z,101518.41
2023-01-21T21:43:05.945Z,101532.00
2023-01-21T21:45:35.235Z,101503.97
2023-01-21T21:48:22.383Z,101499.56
2023-01-21T21:50:56.233Z,101497.84
2023-01-21T21:53:25.117Z,101515.34
2023-01-21T21:55:53.134Z,101506.19
2023-01-21T21:58:29.237Z,101515.34
2023-01-21T22:01:11.028Z,101513.75
2023-01-21T22:03:46.266Z,101537.38
2023-01-21T22:06:18.522Z,101541.66
2023-01-21T22:08:51.047Z,101539.19
2023-01-21T22:11:25.438Z,101524.03
2023-01-21T22:13:56.716Z,101520.97
2023-01-21T22:16:31.043Z,101534.44
2023-01-21T22:19:01.899Z,101529.16
2023-01-21T22:21:32.060Z,101515.84
2023-01-21T22:24:02.841Z,101524.03
2023-01-21T22:26:36.180Z,101517.31
2023-01-21T22:29:07.775Z,101519.00
2023-01-21T22:31:45.241Z,101517.44
2023-01-21T22:34:20.273Z,101532.84
2023-01-21T22:36:50.955Z,101526.34
2023-01-21T22:39:25.999Z,101534.56
2023-01-21T22:42:03.315Z,101536.28
2023-01-21T22:44:41.131Z,101530.00
2023-01-21T22:47:18.376Z,101528.06
2023-01-21T22:49:49.354Z,101537.50
2023-01-21T22:52:26.385Z,101541.66
2023-01-21T22:54:57.222Z,101546.66
2023-01-21T22:57:27.097Z,101550.94
2023-01-21T23:00:01.462Z,101556.09
2023-01-21T23:02:36.794Z,101556.22
2023-01-21T23:05:09.026Z,101554.34
2023-01-21T23:07:40.330Z,101565.75
2023-01-21T23:10:16.275Z,101564.88
2023-01-21T23:12:53.095Z,101567.69
2023-01-21T23:15:29.572Z,101555.34
2023-01-21T23:18:06.965Z,101547.25
2023-01-21T23:20:42.889Z,101548.97
2023-01-21T23:23:18.353Z,101552.88
2023-01-21T23:25:51.722Z,101542.88
2023-01-21T23:28:24.923Z,101552.63
2023-01-21T23:30:59.124Z,101553.25
2023-01-21T23:33:29.588Z,101545.44
2023-01-21T23:36:01.605Z,101547.25
2023-01-21T23:38:31.767Z,101555.13
2023-01-21T23:41:00.164Z,101547.25
2023-01-21T23:43:33.755Z,101550.69
2023-01-21T23:46:07.871Z,101563.41
2023-01-21T23:48:42.631Z,101530.88
2023-01-21T23:51:15.659Z,101544.34
2023-01-21T23:53:50.051Z,101542.38
2023-01-21T23:56:24.099Z,101540.78
2023-01-21T23:58:57.246Z,101550.81
